Winamac, IN (46996)

9:37 AM EDT on July 31, 2014 (GMT -0400)
East of Town (KINNORTH11) Elev 700 ft | 41.24 °N, 86.72 °W | Change Station

Current weather conditions updated 2 minutes ago

Clear
Clear
66.6 °F
Feels Like 66.6 °F
N
4.0
Wind Variable Wind from SW
Gusts 4.0 mph

Today is forecast to be Warmer than yesterday.

Today
High -- | Low -- °F
--% Chance of Precip.
Yesterday
High -- | Low -- °F
Precip. -- in
6:41 AM 9:03 PM
Waxing Crescent, 18% visible
Pressure 30.05 in
Visibility 7.0 miles
Clouds Clear
Dew Point 64 °F
Humidity 90%
Rainfall 0.00 in
Snow Depth Not available.
UV 3 out of 12
Pollen 7.40 out of 12
Air Quality Not available.
Flu Activity Not available.
METAR KOXI 311315Z AUTO 21003KT 7SM CLR 17/15 A3005 RMK AO1 T01690154

More Conditions Fewer Conditions

Pressure 30.05 in
Visibility 7.0 miles
Clouds Clear
Dew Point 64 °F
Humidity 90%
Rainfall 0.00 in
Snow Depth Not available.
UV 3 out of 12
Pollen 7.40 out of 12
Air Quality Not available.
Flu Activity Not available.
METAR KOXI 311315Z AUTO 21003KT 7SM CLR 17/15 A3005 RMK AO1 T01690154

More Conditions Fewer Conditions

10-Day Weather Forecast

Almanac

Astronomy

Jul. 31, 2014 Rise Set
Actual Time 6:41 AM EDT 9:03 PM EDT
Civil Twilight 6:10 AM EDT 9:34 PM EDT
Nautical Twilight 5:31 AM EDT 10:12 PM EDT
Astronomical Twilight 4:49 AM EDT 10:55 PM EDT
Moon 11:10 AM EDT 11:13 PM EDT
Length of Visible Light 15h 24m
Length of Day
14h 22m
Tomorrow will be 2m 2s shorter.
Waxing Crescent, 18% of the Moon is Illuminated
Today
Waxing Crescent
Aug 3
First Quarter
Aug 10
Full
Aug 17
Last Quarter
Aug 25
New

Community

WunderPhotos

Upload Photos

1,739,324 photos uploaded!

WunderBlogs® & News

Nearby

Snow Depth

Station Depth Elevation
No new snow has been reported.

Earthquake Activity

City Distance Mag. Time & Date
No recent earthquake activity has been reported nearby.
Minimum magnitude displayed is 2.5.

Coastal Water Temperatures

Place Temperature
No Stations Reporting

Nearby Weather Stations

Station Location Temp. Dew Point Humidity Wind Precip. Elev Updated Type
East of Town, North Judson, IN 66.6 °F 64 °F 90% SW  at  4.0 mph 0.00 in / hr 700 ft 8:35 AM CDT Normal
Leroy's BarnYard, Kewanna, IN 64.3 °F 59 °F 84% WSW  at  2.0 mph 0.00 in / hr 758 ft 9:34 AM EDT Normal
400 west, Rochester, IN 67.1 °F 64 °F 91% West  at  2.0 mph 0.00 in / hr 745 ft 9:37 AM EDT Rapid Fire
Bluewater Drive, Monticello, IN 66.0 °F 65 °F 98% WNW  at  2.7 mph - / hr 623 ft 9:23 AM EDT Normal
4th Street, Rochester, IN 66.3 °F 61 °F 83% SSW  at  3.0 mph 0.00 in / hr 781 ft 9:33 AM EDT Normal

Show More Stations Show Fewer Stations